This is the latest recevied weather packets stored in our database for station/object E22ZMG-2. If no packets are shown the sender has not sent any weather packets the latest 10 day(s).
| Time | Temp. | Humidity | Pressure | Rain* | Wind** | Luminosity | Snow |
|---|---|---|---|---|---|---|---|
| 1777825053 | 30° C | 50% | 927 hPa | - | - | 0 W/m² | - |
| 1777824429 | 30° C | 50% | 927 hPa | - | - | 0 W/m² | - |
| 1777823804 | 30.56° C | 47% | 927 hPa | - | - | 0 W/m² | - |
| 1777823180 | 30° C | 48% | 927 hPa | - | - | 0 W/m² | - |
| 1777822556 | 30.56° C | 47% | 927 hPa | - | - | 0 W/m² | - |
| 1777821932 | 30.56° C | 46% | 927 hPa | - | - | 0 W/m² | - |
| 1777821308 | 30.56° C | 47% | 927 hPa | - | - | 0 W/m² | - |
| 1777820684 | 30.56° C | 47% | 927 hPa | - | - | 0 W/m² | - |
| 1777820061 | 30.56° C | 48% | 926 hPa | - | - | 0 W/m² | - |
| 1777819436 | 30.56° C | 48% | 926 hPa | - | - | 0 W/m² | - |
| 1777818812 | 31.11° C | 46% | 926 hPa | - | - | 0 W/m² | - |
| 1777818188 | 31.11° C | 46% | 926 hPa | - | - | 0 W/m² | - |
| 1777817564 | 31.11° C | 46% | 926 hPa | - | - | 0 W/m² | - |
| 1777816940 | 31.11° C | 46% | 925 hPa | - | - | 0 W/m² | - |
| 1777816316 | 31.11° C | 46% | 925 hPa | - | - | 0 W/m² | - |
| 1777815691 | 31.11° C | 46% | 925 hPa | - | - | 0 W/m² | - |
| 1777815068 | 31.11° C | 48% | 925 hPa | - | - | 0 W/m² | - |
| 1777814443 | 31.67° C | 47% | 925 hPa | - | - | 0 W/m² | - |
| 1777813819 | 31.67° C | 50% | 925 hPa | - | - | 0 W/m² | - |
| 1777813195 | 31.67° C | 49% | 924 hPa | - | - | 0 W/m² | - |
| 1777812571 | 31.67° C | 49% | 924 hPa | - | - | 0 W/m² | - |
| 1777811946 | 32.22° C | 48% | 924 hPa | - | - | 0 W/m² | - |
| 1777811322 | 32.22° C | 49% | 924 hPa | - | - | 0 W/m² | - |
| 1777810698 | 32.22° C | 48% | 924 hPa | - | - | 0 W/m² | - |
| 1777810074 | 32.22° C | 48% | 924 hPa | - | - | 0 W/m² | - |
* Rain since midnight (hover to see other rain measurements)
** Current wind speed in m/s (hover to see current wind gust speed)